ムルマンスク の空港の天気 - METARとTAF

ムルマンスク空港 ( ULMM / MMK ) - ロシア ムルマンスク
飛行場実況気象(Metar)
観測時間06/29 04:30 MSK (06/29 01:30 UTC)
風向・風速北北西 2m/s
視程10km以上
天気現象
少しの雲 雲底高度 490m
気温7℃
湿度76%
気圧1013hPa
METARULMM 290130Z 33002MPS 9999 FEW016 07/03 Q1013 R31/090070 NOSIG RMK QFE752
過去の天気等 Google飛行場航空写真 Wunderground天気予報

過去48時間のMETAR

飛行場予報(TAF)
発表時間: 6/29 01:52 MSK (6/28 22:52 UTC)
予報対象時間: 29日3時 MSK ~ 30日3時 MSK
風向・風速北 3m/s 瞬間風速 8m/s
視程10km以上
全天の8割程度の雲 雲底高度 460m
29日3時 MSK ~ 29日9時 MSK に一時的に
風向・風速北西 3m/s
視程4,000m
天気現象弱いしゅう雨 もや
全天の8割程度の雲 雲底高度 340m
全天の8割程度の積乱雲 雲底高度 460m
29日9時 MSK ~ 29日17時 MSK に一時的に
風向・風速北西 3m/s 瞬間風速 8m/s
天気現象弱いしゅう雨
全天の8割程度の積乱雲 雲底高度 460m
29日17時 MSK ~ 29日18時 MSK に徐々に
風向・風速南東 3m/s
29日18時 MSK ~ 30日3時 MSK に一時的に
風向・風速南南東 3m/s
全天の4割程度の雲 雲底高度 460m
TAF ULMM 282252Z 2900/2924 36003G08MPS 9999 BKN015
TEMPO 2900/2906 32003MPS 4000 -SHRA BR BKN011 BKN015CB
TEMPO 2906/2914 32003G08MPS -SHRA BKN015CB
BECMG 2914/2915 13003MPS
TEMPO 2915/2924 16003MPS SCT015